sensor_id;sensor_type;location;lat;lon;timestamp;P1;durP1;ratioP1;P2;durP2;ratioP2
9214;SDS011;4642;51.364;6.788;2023-05-10T00:01:27;16.30;;;12.07;;
9214;SDS011;4642;51.364;6.788;2023-05-10T00:03:52;15.83;;;12.33;;
9214;SDS011;4642;51.364;6.788;2023-05-10T00:06:18;17.37;;;11.20;;
9214;SDS011;4642;51.364;6.788;2023-05-10T00:08:44;14.63;;;10.07;;
9214;SDS011;4642;51.364;6.788;2023-05-10T00:11:10;14.10;;;10.63;;
9214;SDS011;4642;51.364;6.788;2023-05-10T00:13:36;15.13;;;10.60;;
9214;SDS011;4642;51.364;6.788;2023-05-10T00:16:01;11.87;;;9.03;;
9214;SDS011;4642;51.364;6.788;2023-05-10T00:18:27;12.63;;;9.70;;
9214;SDS011;4642;51.364;6.788;2023-05-10T00:20:52;12.73;;;10.77;;
9214;SDS011;4642;51.364;6.788;2023-05-10T00:23:18;12.47;;;9.80;;
9214;SDS011;4642;51.364;6.788;2023-05-10T00:25:43;13.03;;;9.47;;
9214;SDS011;4642;51.364;6.788;2023-05-10T00:28:09;13.50;;;9.80;;
9214;SDS011;4642;51.364;6.788;2023-05-10T00:30:34;12.23;;;10.17;;
9214;SDS011;4642;51.364;6.788;2023-05-10T00:33:00;13.63;;;10.47;;
9214;SDS011;4642;51.364;6.788;2023-05-10T00:35:26;14.50;;;10.60;;
9214;SDS011;4642;51.364;6.788;2023-05-10T00:37:51;14.40;;;10.40;;
9214;SDS011;4642;51.364;6.788;2023-05-10T00:40:17;15.53;;;11.83;;
9214;SDS011;4642;51.364;6.788;2023-05-10T00:42:42;15.07;;;11.60;;
9214;SDS011;4642;51.364;6.788;2023-05-10T00:45:08;15.93;;;11.53;;
9214;SDS011;4642;51.364;6.788;2023-05-10T00:47:34;15.93;;;11.57;;
9214;SDS011;4642;51.364;6.788;2023-05-10T00:49:59;14.53;;;11.53;;
9214;SDS011;4642;51.364;6.788;2023-05-10T00:52:26;14.73;;;11.33;;
9214;SDS011;4642;51.364;6.788;2023-05-10T00:54:53;15.03;;;11.53;;
9214;SDS011;4642;51.364;6.788;2023-05-10T00:57:19;15.90;;;11.77;;
9214;SDS011;4642;51.364;6.788;2023-05-10T00:59:45;13.27;;;11.13;;
9214;SDS011;4642;51.364;6.788;2023-05-10T01:02:11;15.57;;;11.53;;
9214;SDS011;4642;51.364;6.788;2023-05-10T01:04:38;15.00;;;11.93;;
9214;SDS011;4642;51.364;6.788;2023-05-10T01:07:04;16.13;;;11.43;;
9214;SDS011;4642;51.364;6.788;2023-05-10T01:09:29;14.07;;;10.70;;
9214;SDS011;4642;51.364;6.788;2023-05-10T01:11:55;15.27;;;11.00;;
9214;SDS011;4642;51.364;6.788;2023-05-10T01:14:21;14.00;;;10.80;;
9214;SDS011;4642;51.364;6.788;2023-05-10T01:16:48;14.20;;;10.30;;
9214;SDS011;4642;51.364;6.788;2023-05-10T01:19:25;15.07;;;10.77;;
9214;SDS011;4642;51.364;6.788;2023-05-10T01:27:25;15.37;;;12.07;;
9214;SDS011;4642;51.364;6.788;2023-05-10T01:30:08;18.43;;;11.70;;
9214;SDS011;4642;51.364;6.788;2023-05-10T01:35:17;11.27;;;8.80;;
9214;SDS011;4642;51.364;6.788;2023-05-10T01:37:50;13.50;;;8.93;;
9214;SDS011;4642;51.364;6.788;2023-05-10T01:40:30;13.37;;;8.97;;
9214;SDS011;4642;51.364;6.788;2023-05-10T01:43:02;11.23;;;8.93;;
9214;SDS011;4642;51.364;6.788;2023-05-10T01:45:37;11.57;;;9.03;;
9214;SDS011;4642;51.364;6.788;2023-05-10T01:50:38;13.07;;;10.60;;
9214;SDS011;4642;51.364;6.788;2023-05-10T01:53:08;15.30;;;10.93;;
9214;SDS011;4642;51.364;6.788;2023-05-10T01:55:49;20.83;;;12.03;;
9214;SDS011;4642;51.364;6.788;2023-05-10T01:58:25;15.97;;;11.90;;
9214;SDS011;4642;51.364;6.788;2023-05-10T02:00:53;15.73;;;11.60;;
9214;SDS011;4642;51.364;6.788;2023-05-10T02:03:20;16.93;;;12.33;;
9214;SDS011;4642;51.364;6.788;2023-05-10T02:05:48;15.13;;;11.80;;
9214;SDS011;4642;51.364;6.788;2023-05-10T02:08:15;17.63;;;12.50;;
9214;SDS011;4642;51.364;6.788;2023-05-10T02:10:42;19.43;;;12.70;;
9214;SDS011;4642;51.364;6.788;2023-05-10T02:13:10;17.17;;;11.53;;
9214;SDS011;4642;51.364;6.788;2023-05-10T02:15:37;21.53;;;12.53;;
9214;SDS011;4642;51.364;6.788;2023-05-10T02:18:05;16.60;;;12.40;;
9214;SDS011;4642;51.364;6.788;2023-05-10T02:20:31;14.97;;;11.97;;
9214;SDS011;4642;51.364;6.788;2023-05-10T02:22:58;16.20;;;12.17;;
9214;SDS011;4642;51.364;6.788;2023-05-10T02:25:24;23.90;;;12.40;;
9214;SDS011;4642;51.364;6.788;2023-05-10T02:27:52;24.67;;;12.33;;
9214;SDS011;4642;51.364;6.788;2023-05-10T02:30:21;17.60;;;11.17;;
9214;SDS011;4642;51.364;6.788;2023-05-10T02:32:48;16.83;;;11.77;;
9214;SDS011;4642;51.364;6.788;2023-05-10T02:35:15;19.37;;;11.67;;
9214;SDS011;4642;51.364;6.788;2023-05-10T02:37:41;18.27;;;11.83;;
9214;SDS011;4642;51.364;6.788;2023-05-10T02:40:08;18.30;;;12.60;;
9214;SDS011;4642;51.364;6.788;2023-05-10T02:42:36;18.13;;;12.60;;
9214;SDS011;4642;51.364;6.788;2023-05-10T02:45:07;16.03;;;10.97;;
9214;SDS011;4642;51.364;6.788;2023-05-10T02:47:36;15.43;;;11.23;;
9214;SDS011;4642;51.364;6.788;2023-05-10T02:50:01;14.90;;;10.90;;
9214;SDS011;4642;51.364;6.788;2023-05-10T02:52:29;20.23;;;11.80;;
9214;SDS011;4642;51.364;6.788;2023-05-10T02:55:02;14.20;;;10.40;;
9214;SDS011;4642;51.364;6.788;2023-05-10T02:57:32;15.47;;;11.43;;
9214;SDS011;4642;51.364;6.788;2023-05-10T02:59:59;16.80;;;12.13;;
9214;SDS011;4642;51.364;6.788;2023-05-10T03:02:26;16.83;;;12.03;;
9214;SDS011;4642;51.364;6.788;2023-05-10T03:04:52;22.00;;;11.87;;
9214;SDS011;4642;51.364;6.788;2023-05-10T03:07:17;18.97;;;12.43;;
9214;SDS011;4642;51.364;6.788;2023-05-10T03:09:46;16.37;;;10.80;;
9214;SDS011;4642;51.364;6.788;2023-05-10T03:12:23;17.17;;;11.53;;
9214;SDS011;4642;51.364;6.788;2023-05-10T03:15:02;23.03;;;12.60;;
9214;SDS011;4642;51.364;6.788;2023-05-10T03:17:37;18.80;;;12.10;;
9214;SDS011;4642;51.364;6.788;2023-05-10T03:20:29;20.10;;;12.93;;
9214;SDS011;4642;51.364;6.788;2023-05-10T03:25:36;17.17;;;11.87;;
9214;SDS011;4642;51.364;6.788;2023-05-10T03:28:04;17.70;;;11.80;;
9214;SDS011;4642;51.364;6.788;2023-05-10T03:30:31;15.23;;;11.30;;
9214;SDS011;4642;51.364;6.788;2023-05-10T03:32:58;15.63;;;11.37;;
9214;SDS011;4642;51.364;6.788;2023-05-10T03:35:30;15.77;;;11.10;;
9214;SDS011;4642;51.364;6.788;2023-05-10T03:37:55;17.03;;;10.70;;
9214;SDS011;4642;51.364;6.788;2023-05-10T03:40:21;17.37;;;10.40;;
9214;SDS011;4642;51.364;6.788;2023-05-10T03:42:47;17.70;;;10.93;;
9214;SDS011;4642;51.364;6.788;2023-05-10T03:45:13;18.07;;;11.80;;
9214;SDS011;4642;51.364;6.788;2023-05-10T03:47:39;18.03;;;12.47;;
9214;SDS011;4642;51.364;6.788;2023-05-10T03:50:04;18.10;;;11.57;;
9214;SDS011;4642;51.364;6.788;2023-05-10T03:52:30;17.47;;;10.73;;
9214;SDS011;4642;51.364;6.788;2023-05-10T03:54:56;15.30;;;11.37;;
9214;SDS011;4642;51.364;6.788;2023-05-10T03:57:22;17.53;;;10.70;;
9214;SDS011;4642;51.364;6.788;2023-05-10T03:59:47;18.43;;;11.23;;
9214;SDS011;4642;51.364;6.788;2023-05-10T04:02:13;19.60;;;11.60;;
9214;SDS011;4642;51.364;6.788;2023-05-10T04:04:38;16.90;;;11.37;;
9214;SDS011;4642;51.364;6.788;2023-05-10T04:07:04;16.63;;;11.07;;
9214;SDS011;4642;51.364;6.788;2023-05-10T04:09:30;15.23;;;11.10;;
9214;SDS011;4642;51.364;6.788;2023-05-10T04:11:55;17.27;;;11.60;;
9214;SDS011;4642;51.364;6.788;2023-05-10T04:14:21;14.03;;;10.67;;
9214;SDS011;4642;51.364;6.788;2023-05-10T04:16:46;17.33;;;11.70;;
9214;SDS011;4642;51.364;6.788;2023-05-10T04:19:12;18.40;;;10.97;;
9214;SDS011;4642;51.364;6.788;2023-05-10T04:21:37;16.27;;;11.40;;
9214;SDS011;4642;51.364;6.788;2023-05-10T04:24:03;18.30;;;12.40;;
9214;SDS011;4642;51.364;6.788;2023-05-10T04:26:29;17.10;;;12.53;;
9214;SDS011;4642;51.364;6.788;2023-05-10T04:28:54;17.17;;;12.13;;
9214;SDS011;4642;51.364;6.788;2023-05-10T04:31:20;21.30;;;12.07;;
9214;SDS011;4642;51.364;6.788;2023-05-10T04:33:46;20.00;;;12.43;;
9214;SDS011;4642;51.364;6.788;2023-05-10T04:36:12;21.20;;;13.53;;
9214;SDS011;4642;51.364;6.788;2023-05-10T04:38:37;20.10;;;13.77;;
9214;SDS011;4642;51.364;6.788;2023-05-10T04:41:03;25.73;;;14.60;;
9214;SDS011;4642;51.364;6.788;2023-05-10T04:43:30;23.13;;;15.13;;
9214;SDS011;4642;51.364;6.788;2023-05-10T04:45:58;28.33;;;18.00;;
9214;SDS011;4642;51.364;6.788;2023-05-10T04:48:24;31.33;;;18.03;;
9214;SDS011;4642;51.364;6.788;2023-05-10T04:50:50;30.73;;;18.07;;
9214;SDS011;4642;51.364;6.788;2023-05-10T04:53:15;27.03;;;16.27;;
9214;SDS011;4642;51.364;6.788;2023-05-10T04:55:41;29.87;;;17.70;;
9214;SDS011;4642;51.364;6.788;2023-05-10T04:58:06;31.77;;;18.87;;
9214;SDS011;4642;51.364;6.788;2023-05-10T05:00:32;33.87;;;19.63;;
9214;SDS011;4642;51.364;6.788;2023-05-10T05:02:58;30.20;;;18.43;;
9214;SDS011;4642;51.364;6.788;2023-05-10T05:05:24;34.17;;;18.83;;
9214;SDS011;4642;51.364;6.788;2023-05-10T05:07:50;31.47;;;20.23;;
9214;SDS011;4642;51.364;6.788;2023-05-10T05:10:15;36.53;;;20.07;;
9214;SDS011;4642;51.364;6.788;2023-05-10T05:12:41;35.63;;;19.60;;
9214;SDS011;4642;51.364;6.788;2023-05-10T05:15:06;32.00;;;20.03;;
9214;SDS011;4642;51.364;6.788;2023-05-10T05:17:34;33.07;;;20.97;;
9214;SDS011;4642;51.364;6.788;2023-05-10T05:19:59;38.67;;;21.20;;
9214;SDS011;4642;51.364;6.788;2023-05-10T05:22:25;34.23;;;20.00;;
9214;SDS011;4642;51.364;6.788;2023-05-10T05:24:56;33.43;;;21.10;;
9214;SDS011;4642;51.364;6.788;2023-05-10T05:27:23;37.43;;;21.30;;
9214;SDS011;4642;51.364;6.788;2023-05-10T05:29:52;41.20;;;20.60;;
9214;SDS011;4642;51.364;6.788;2023-05-10T05:32:18;35.70;;;21.23;;
9214;SDS011;4642;51.364;6.788;2023-05-10T05:34:44;35.37;;;22.00;;
9214;SDS011;4642;51.364;6.788;2023-05-10T05:37:14;39.17;;;22.73;;
9214;SDS011;4642;51.364;6.788;2023-05-10T05:39:40;44.90;;;23.27;;
9214;SDS011;4642;51.364;6.788;2023-05-10T05:42:06;33.90;;;21.80;;
9214;SDS011;4642;51.364;6.788;2023-05-10T05:44:31;37.80;;;21.67;;
9214;SDS011;4642;51.364;6.788;2023-05-10T05:46:57;35.37;;;21.17;;
9214;SDS011;4642;51.364;6.788;2023-05-10T05:49:22;38.33;;;22.53;;
9214;SDS011;4642;51.364;6.788;2023-05-10T05:51:48;36.17;;;22.43;;
9214;SDS011;4642;51.364;6.788;2023-05-10T05:54:15;42.07;;;22.23;;
9214;SDS011;4642;51.364;6.788;2023-05-10T05:56:40;35.00;;;22.60;;
9214;SDS011;4642;51.364;6.788;2023-05-10T05:59:06;38.67;;;22.60;;
9214;SDS011;4642;51.364;6.788;2023-05-10T06:01:32;36.73;;;21.67;;
9214;SDS011;4642;51.364;6.788;2023-05-10T06:03:57;35.97;;;22.17;;
9214;SDS011;4642;51.364;6.788;2023-05-10T06:06:23;36.00;;;21.60;;
9214;SDS011;4642;51.364;6.788;2023-05-10T06:08:48;42.67;;;22.50;;
9214;SDS011;4642;51.364;6.788;2023-05-10T06:11:14;36.80;;;22.87;;
9214;SDS011;4642;51.364;6.788;2023-05-10T06:13:39;38.60;;;23.13;;
9214;SDS011;4642;51.364;6.788;2023-05-10T06:16:05;40.63;;;22.27;;
9214;SDS011;4642;51.364;6.788;2023-05-10T06:18:30;44.17;;;24.80;;
9214;SDS011;4642;51.364;6.788;2023-05-10T06:20:56;46.37;;;24.67;;
9214;SDS011;4642;51.364;6.788;2023-05-10T06:23:22;44.03;;;23.30;;
9214;SDS011;4642;51.364;6.788;2023-05-10T06:25:47;44.43;;;23.83;;
9214;SDS011;4642;51.364;6.788;2023-05-10T06:28:13;47.50;;;24.60;;
9214;SDS011;4642;51.364;6.788;2023-05-10T06:30:39;41.90;;;24.53;;
9214;SDS011;4642;51.364;6.788;2023-05-10T06:33:04;46.40;;;24.53;;
9214;SDS011;4642;51.364;6.788;2023-05-10T06:35:30;40.50;;;23.77;;
9214;SDS011;4642;51.364;6.788;2023-05-10T06:37:57;43.03;;;23.70;;
9214;SDS011;4642;51.364;6.788;2023-05-10T06:40:23;41.00;;;22.27;;
9214;SDS011;4642;51.364;6.788;2023-05-10T06:42:48;36.07;;;21.70;;
9214;SDS011;4642;51.364;6.788;2023-05-10T06:45:14;51.33;;;24.00;;
9214;SDS011;4642;51.364;6.788;2023-05-10T06:47:40;46.63;;;25.13;;
9214;SDS011;4642;51.364;6.788;2023-05-10T06:50:07;44.77;;;23.13;;
9214;SDS011;4642;51.364;6.788;2023-05-10T06:52:33;48.53;;;24.40;;
9214;SDS011;4642;51.364;6.788;2023-05-10T06:54:59;47.43;;;24.67;;
9214;SDS011;4642;51.364;6.788;2023-05-10T06:57:25;49.67;;;25.23;;
9214;SDS011;4642;51.364;6.788;2023-05-10T06:59:51;51.37;;;25.10;;
9214;SDS011;4642;51.364;6.788;2023-05-10T07:02:17;45.33;;;24.30;;
9214;SDS011;4642;51.364;6.788;2023-05-10T07:04:42;48.20;;;23.07;;
9214;SDS011;4642;51.364;6.788;2023-05-10T07:07:08;46.83;;;24.43;;
9214;SDS011;4642;51.364;6.788;2023-05-10T07:09:33;51.43;;;24.07;;
9214;SDS011;4642;51.364;6.788;2023-05-10T07:11:59;50.77;;;23.60;;
9214;SDS011;4642;51.364;6.788;2023-05-10T07:14:26;45.47;;;23.30;;
9214;SDS011;4642;51.364;6.788;2023-05-10T07:16:52;56.10;;;24.47;;
9214;SDS011;4642;51.364;6.788;2023-05-10T07:19:17;48.27;;;24.50;;
9214;SDS011;4642;51.364;6.788;2023-05-10T07:21:43;41.40;;;22.30;;
9214;SDS011;4642;51.364;6.788;2023-05-10T07:24:09;57.17;;;24.00;;
9214;SDS011;4642;51.364;6.788;2023-05-10T07:26:34;43.07;;;22.87;;
9214;SDS011;4642;51.364;6.788;2023-05-10T07:29:00;43.37;;;21.70;;
9214;SDS011;4642;51.364;6.788;2023-05-10T07:31:26;41.40;;;20.60;;
9214;SDS011;4642;51.364;6.788;2023-05-10T07:33:51;43.53;;;21.83;;
9214;SDS011;4642;51.364;6.788;2023-05-10T07:36:17;38.47;;;19.73;;
9214;SDS011;4642;51.364;6.788;2023-05-10T07:38:42;40.27;;;20.33;;
9214;SDS011;4642;51.364;6.788;2023-05-10T07:41:08;43.40;;;21.20;;
9214;SDS011;4642;51.364;6.788;2023-05-10T07:43:33;44.13;;;21.53;;
9214;SDS011;4642;51.364;6.788;2023-05-10T07:45:59;40.17;;;21.40;;
9214;SDS011;4642;51.364;6.788;2023-05-10T07:48:24;40.60;;;20.53;;
9214;SDS011;4642;51.364;6.788;2023-05-10T07:50:50;41.07;;;20.50;;
9214;SDS011;4642;51.364;6.788;2023-05-10T07:53:16;45.37;;;21.37;;
9214;SDS011;4642;51.364;6.788;2023-05-10T07:55:43;44.10;;;20.90;;
9214;SDS011;4642;51.364;6.788;2023-05-10T07:58:09;37.40;;;19.83;;
9214;SDS011;4642;51.364;6.788;2023-05-10T08:00:34;33.37;;;17.43;;
9214;SDS011;4642;51.364;6.788;2023-05-10T08:03:00;36.40;;;19.73;;
9214;SDS011;4642;51.364;6.788;2023-05-10T08:05:25;35.47;;;19.10;;
9214;SDS011;4642;51.364;6.788;2023-05-10T08:07:51;32.00;;;18.60;;
9214;SDS011;4642;51.364;6.788;2023-05-10T08:10:16;36.60;;;19.97;;
9214;SDS011;4642;51.364;6.788;2023-05-10T08:12:42;37.13;;;21.63;;
9214;SDS011;4642;51.364;6.788;2023-05-10T08:15:07;53.13;;;24.90;;
9214;SDS011;4642;51.364;6.788;2023-05-10T08:17:33;47.57;;;24.57;;
9214;SDS011;4642;51.364;6.788;2023-05-10T08:19:59;50.77;;;24.13;;
9214;SDS011;4642;51.364;6.788;2023-05-10T08:22:25;46.23;;;23.93;;
9214;SDS011;4642;51.364;6.788;2023-05-10T08:24:51;47.23;;;24.27;;
9214;SDS011;4642;51.364;6.788;2023-05-10T08:27:16;50.90;;;23.67;;
9214;SDS011;4642;51.364;6.788;2023-05-10T08:29:42;50.20;;;25.37;;
9214;SDS011;4642;51.364;6.788;2023-05-10T08:32:07;48.97;;;25.30;;
9214;SDS011;4642;51.364;6.788;2023-05-10T08:34:32;46.33;;;24.17;;
9214;SDS011;4642;51.364;6.788;2023-05-10T08:36:58;45.07;;;23.77;;
9214;SDS011;4642;51.364;6.788;2023-05-10T08:39:23;51.67;;;26.00;;
9214;SDS011;4642;51.364;6.788;2023-05-10T08:41:50;41.60;;;22.87;;
9214;SDS011;4642;51.364;6.788;2023-05-10T08:44:18;43.90;;;22.83;;
9214;SDS011;4642;51.364;6.788;2023-05-10T08:46:46;42.77;;;23.17;;
9214;SDS011;4642;51.364;6.788;2023-05-10T08:49:13;42.60;;;22.70;;
9214;SDS011;4642;51.364;6.788;2023-05-10T08:51:47;41.43;;;22.73;;
9214;SDS011;4642;51.364;6.788;2023-05-10T08:54:16;40.47;;;22.97;;
9214;SDS011;4642;51.364;6.788;2023-05-10T08:56:42;41.80;;;22.93;;
9214;SDS011;4642;51.364;6.788;2023-05-10T08:59:08;41.67;;;21.93;;
9214;SDS011;4642;51.364;6.788;2023-05-10T09:01:35;38.57;;;22.77;;
9214;SDS011;4642;51.364;6.788;2023-05-10T09:04:01;44.63;;;21.53;;
9214;SDS011;4642;51.364;6.788;2023-05-10T09:06:27;35.53;;;21.90;;
9214;SDS011;4642;51.364;6.788;2023-05-10T09:08:53;36.30;;;20.53;;
9214;SDS011;4642;51.364;6.788;2023-05-10T09:11:19;38.27;;;21.90;;
9214;SDS011;4642;51.364;6.788;2023-05-10T09:13:45;33.20;;;20.43;;
9214;SDS011;4642;51.364;6.788;2023-05-10T09:16:13;30.53;;;20.97;;
9214;SDS011;4642;51.364;6.788;2023-05-10T09:18:38;36.57;;;20.53;;
9214;SDS011;4642;51.364;6.788;2023-05-10T09:21:04;34.13;;;20.83;;
9214;SDS011;4642;51.364;6.788;2023-05-10T09:23:29;34.80;;;19.93;;
9214;SDS011;4642;51.364;6.788;2023-05-10T09:26:06;29.63;;;17.37;;
9214;SDS011;4642;51.364;6.788;2023-05-10T09:28:32;29.57;;;17.57;;
9214;SDS011;4642;51.364;6.788;2023-05-10T09:30:59;27.83;;;17.53;;
9214;SDS011;4642;51.364;6.788;2023-05-10T09:33:24;26.20;;;16.13;;
9214;SDS011;4642;51.364;6.788;2023-05-10T09:35:51;25.10;;;16.43;;
9214;SDS011;4642;51.364;6.788;2023-05-10T09:38:17;27.97;;;17.30;;
9214;SDS011;4642;51.364;6.788;2023-05-10T09:40:42;22.03;;;15.17;;
9214;SDS011;4642;51.364;6.788;2023-05-10T09:43:19;21.23;;;14.73;;
9214;SDS011;4642;51.364;6.788;2023-05-10T09:45:45;22.33;;;14.53;;
9214;SDS011;4642;51.364;6.788;2023-05-10T09:48:13;22.90;;;14.37;;
9214;SDS011;4642;51.364;6.788;2023-05-10T09:50:39;20.57;;;13.07;;
9214;SDS011;4642;51.364;6.788;2023-05-10T09:53:05;21.87;;;13.63;;
9214;SDS011;4642;51.364;6.788;2023-05-10T09:55:44;23.73;;;14.60;;
9214;SDS011;4642;51.364;6.788;2023-05-10T09:58:12;23.33;;;14.13;;
9214;SDS011;4642;51.364;6.788;2023-05-10T10:00:39;19.73;;;14.43;;
9214;SDS011;4642;51.364;6.788;2023-05-10T10:03:06;27.43;;;14.27;;
9214;SDS011;4642;51.364;6.788;2023-05-10T10:05:36;23.90;;;14.17;;
9214;SDS011;4642;51.364;6.788;2023-05-10T10:08:06;21.53;;;14.27;;
9214;SDS011;4642;51.364;6.788;2023-05-10T10:10:32;20.00;;;13.60;;
9214;SDS011;4642;51.364;6.788;2023-05-10T10:12:58;20.10;;;13.37;;
9214;SDS011;4642;51.364;6.788;2023-05-10T10:15:24;19.57;;;13.93;;
9214;SDS011;4642;51.364;6.788;2023-05-10T10:17:50;22.10;;;14.47;;
9214;SDS011;4642;51.364;6.788;2023-05-10T10:20:17;21.97;;;14.60;;
9214;SDS011;4642;51.364;6.788;2023-05-10T10:22:45;24.07;;;15.20;;
9214;SDS011;4642;51.364;6.788;2023-05-10T10:25:12;23.27;;;14.63;;
9214;SDS011;4642;51.364;6.788;2023-05-10T10:27:49;22.23;;;14.70;;
9214;SDS011;4642;51.364;6.788;2023-05-10T10:30:43;21.70;;;13.70;;
9214;SDS011;4642;51.364;6.788;2023-05-10T10:33:17;20.33;;;14.60;;
9214;SDS011;4642;51.364;6.788;2023-05-10T10:36:06;22.40;;;14.47;;
9214;SDS011;4642;51.364;6.788;2023-05-10T10:39:14;18.80;;;14.20;;
9214;SDS011;4642;51.364;6.788;2023-05-10T10:49:51;20.27;;;13.17;;
9214;SDS011;4642;51.364;6.788;2023-05-10T10:52:27;18.97;;;13.03;;
9214;SDS011;4642;51.364;6.788;2023-05-10T11:03:14;17.63;;;11.13;;
9214;SDS011;4642;51.364;6.788;2023-05-10T11:05:50;15.77;;;10.40;;
9214;SDS011;4642;51.364;6.788;2023-05-10T11:08:29;14.43;;;9.93;;
9214;SDS011;4642;51.364;6.788;2023-05-10T11:16:15;12.97;;;9.13;;
9214;SDS011;4642;51.364;6.788;2023-05-10T11:19:30;12.60;;;9.03;;
9214;SDS011;4642;51.364;6.788;2023-05-10T11:21:44;15.57;;;10.60;;
9214;SDS011;4642;51.364;6.788;2023-05-10T11:24:15;15.00;;;10.67;;
9214;SDS011;4642;51.364;6.788;2023-05-10T11:26:43;14.97;;;9.70;;
9214;SDS011;4642;51.364;6.788;2023-05-10T11:29:09;13.87;;;10.23;;
9214;SDS011;4642;51.364;6.788;2023-05-10T11:31:35;14.50;;;10.27;;
9214;SDS011;4642;51.364;6.788;2023-05-10T11:34:08;16.07;;;10.17;;
9214;SDS011;4642;51.364;6.788;2023-05-10T11:36:35;13.67;;;10.00;;
9214;SDS011;4642;51.364;6.788;2023-05-10T11:39:01;15.67;;;10.63;;
9214;SDS011;4642;51.364;6.788;2023-05-10T11:41:28;18.27;;;10.17;;
9214;SDS011;4642;51.364;6.788;2023-05-10T11:43:55;15.73;;;11.20;;
9214;SDS011;4642;51.364;6.788;2023-05-10T11:46:22;15.03;;;10.77;;
9214;SDS011;4642;51.364;6.788;2023-05-10T11:48:49;13.77;;;11.33;;
9214;SDS011;4642;51.364;6.788;2023-05-10T11:51:19;12.57;;;10.17;;
9214;SDS011;4642;51.364;6.788;2023-05-10T11:53:46;14.57;;;10.70;;
9214;SDS011;4642;51.364;6.788;2023-05-10T11:56:11;14.00;;;10.50;;
9214;SDS011;4642;51.364;6.788;2023-05-10T11:58:38;14.77;;;9.77;;
9214;SDS011;4642;51.364;6.788;2023-05-10T12:01:04;13.27;;;9.93;;
9214;SDS011;4642;51.364;6.788;2023-05-10T12:03:32;11.60;;;9.63;;
9214;SDS011;4642;51.364;6.788;2023-05-10T12:05:58;13.83;;;9.27;;
9214;SDS011;4642;51.364;6.788;2023-05-10T12:08:27;11.77;;;9.33;;
9214;SDS011;4642;51.364;6.788;2023-05-10T12:11:03;10.57;;;7.93;;
9214;SDS011;4642;51.364;6.788;2023-05-10T12:13:30;11.40;;;8.23;;
9214;SDS011;4642;51.364;6.788;2023-05-10T12:15:59;10.23;;;7.63;;
9214;SDS011;4642;51.364;6.788;2023-05-10T12:18:25;9.30;;;8.33;;
9214;SDS011;4642;51.364;6.788;2023-05-10T12:20:53;10.13;;;8.20;;
9214;SDS011;4642;51.364;6.788;2023-05-10T12:23:20;9.70;;;8.70;;
9214;SDS011;4642;51.364;6.788;2023-05-10T12:25:46;15.10;;;9.27;;
9214;SDS011;4642;51.364;6.788;2023-05-10T12:28:11;14.47;;;9.30;;
9214;SDS011;4642;51.364;6.788;2023-05-10T12:30:37;10.13;;;8.13;;
9214;SDS011;4642;51.364;6.788;2023-05-10T12:35:32;11.83;;;8.70;;
9214;SDS011;4642;51.364;6.788;2023-05-10T12:37:58;11.37;;;8.20;;
9214;SDS011;4642;51.364;6.788;2023-05-10T12:40:23;10.00;;;8.27;;
9214;SDS011;4642;51.364;6.788;2023-05-10T12:42:49;10.17;;;8.60;;
9214;SDS011;4642;51.364;6.788;2023-05-10T12:45:16;10.20;;;8.80;;
9214;SDS011;4642;51.364;6.788;2023-05-10T12:47:43;11.90;;;8.63;;
9214;SDS011;4642;51.364;6.788;2023-05-10T12:50:08;12.10;;;9.23;;
9214;SDS011;4642;51.364;6.788;2023-05-10T12:52:35;11.40;;;8.40;;
9214;SDS011;4642;51.364;6.788;2023-05-10T12:55:01;8.93;;;7.93;;
9214;SDS011;4642;51.364;6.788;2023-05-10T12:57:27;12.13;;;8.87;;
9214;SDS011;4642;51.364;6.788;2023-05-10T12:59:53;8.87;;;7.57;;
9214;SDS011;4642;51.364;6.788;2023-05-10T13:02:19;12.47;;;8.07;;
9214;SDS011;4642;51.364;6.788;2023-05-10T13:04:46;9.47;;;7.33;;
9214;SDS011;4642;51.364;6.788;2023-05-10T13:07:12;11.73;;;8.33;;
9214;SDS011;4642;51.364;6.788;2023-05-10T13:09:38;11.90;;;7.87;;
9214;SDS011;4642;51.364;6.788;2023-05-10T13:12:04;8.87;;;7.97;;
9214;SDS011;4642;51.364;6.788;2023-05-10T13:14:30;8.63;;;7.73;;
9214;SDS011;4642;51.364;6.788;2023-05-10T13:16:56;14.63;;;8.77;;
9214;SDS011;4642;51.364;6.788;2023-05-10T13:19:21;12.07;;;9.90;;
9214;SDS011;4642;51.364;6.788;2023-05-10T13:21:47;11.20;;;9.40;;
9214;SDS011;4642;51.364;6.788;2023-05-10T13:24:12;14.20;;;10.23;;
9214;SDS011;4642;51.364;6.788;2023-05-10T13:26:38;15.17;;;10.80;;
9214;SDS011;4642;51.364;6.788;2023-05-10T13:29:05;13.40;;;10.47;;
9214;SDS011;4642;51.364;6.788;2023-05-10T13:31:30;14.37;;;10.67;;
9214;SDS011;4642;51.364;6.788;2023-05-10T13:33:56;11.77;;;9.87;;
9214;SDS011;4642;51.364;6.788;2023-05-10T13:36:21;15.80;;;11.03;;
9214;SDS011;4642;51.364;6.788;2023-05-10T13:38:47;14.47;;;11.03;;
9214;SDS011;4642;51.364;6.788;2023-05-10T13:41:13;12.07;;;10.63;;
9214;SDS011;4642;51.364;6.788;2023-05-10T13:43:39;16.30;;;11.10;;
9214;SDS011;4642;51.364;6.788;2023-05-10T13:46:04;14.83;;;11.00;;
9214;SDS011;4642;51.364;6.788;2023-05-10T13:48:30;13.50;;;11.07;;
9214;SDS011;4642;51.364;6.788;2023-05-10T13:50:56;14.83;;;11.63;;
9214;SDS011;4642;51.364;6.788;2023-05-10T13:53:21;15.00;;;11.53;;
9214;SDS011;4642;51.364;6.788;2023-05-10T13:55:47;13.80;;;11.37;;
9214;SDS011;4642;51.364;6.788;2023-05-10T13:58:13;15.23;;;10.90;;
9214;SDS011;4642;51.364;6.788;2023-05-10T14:00:38;16.87;;;11.90;;
9214;SDS011;4642;51.364;6.788;2023-05-10T14:03:04;13.80;;;11.80;;
9214;SDS011;4642;51.364;6.788;2023-05-10T14:05:31;13.47;;;11.57;;
9214;SDS011;4642;51.364;6.788;2023-05-10T14:07:56;13.90;;;10.97;;
9214;SDS011;4642;51.364;6.788;2023-05-10T14:10:22;14.03;;;11.10;;
9214;SDS011;4642;51.364;6.788;2023-05-10T14:12:47;13.43;;;11.20;;
9214;SDS011;4642;51.364;6.788;2023-05-10T14:15:15;16.77;;;13.00;;
9214;SDS011;4642;51.364;6.788;2023-05-10T14:17:40;16.23;;;14.20;;
9214;SDS011;4642;51.364;6.788;2023-05-10T14:20:06;16.50;;;14.07;;
9214;SDS011;4642;51.364;6.788;2023-05-10T14:22:32;16.27;;;13.17;;
9214;SDS011;4642;51.364;6.788;2023-05-10T14:24:57;18.90;;;13.23;;
9214;SDS011;4642;51.364;6.788;2023-05-10T14:27:23;16.93;;;13.27;;
9214;SDS011;4642;51.364;6.788;2023-05-10T14:29:49;16.23;;;13.30;;
9214;SDS011;4642;51.364;6.788;2023-05-10T14:32:14;17.10;;;13.93;;
9214;SDS011;4642;51.364;6.788;2023-05-10T14:34:40;20.87;;;14.60;;
9214;SDS011;4642;51.364;6.788;2023-05-10T14:37:05;16.83;;;13.03;;
9214;SDS011;4642;51.364;6.788;2023-05-10T14:39:31;16.67;;;13.83;;
9214;SDS011;4642;51.364;6.788;2023-05-10T14:41:58;18.73;;;14.00;;
9214;SDS011;4642;51.364;6.788;2023-05-10T14:44:23;15.83;;;13.33;;
9214;SDS011;4642;51.364;6.788;2023-05-10T14:46:49;18.80;;;14.03;;
9214;SDS011;4642;51.364;6.788;2023-05-10T14:49:14;16.63;;;13.03;;
9214;SDS011;4642;51.364;6.788;2023-05-10T14:51:40;14.93;;;11.63;;
9214;SDS011;4642;51.364;6.788;2023-05-10T14:54:06;17.37;;;12.90;;
9214;SDS011;4642;51.364;6.788;2023-05-10T14:56:31;16.27;;;13.13;;
9214;SDS011;4642;51.364;6.788;2023-05-10T14:58:57;15.73;;;12.90;;
9214;SDS011;4642;51.364;6.788;2023-05-10T15:01:23;15.50;;;12.00;;
9214;SDS011;4642;51.364;6.788;2023-05-10T15:03:49;14.90;;;12.40;;
9214;SDS011;4642;51.364;6.788;2023-05-10T15:06:14;16.53;;;11.53;;
9214;SDS011;4642;51.364;6.788;2023-05-10T15:08:41;13.17;;;11.00;;
9214;SDS011;4642;51.364;6.788;2023-05-10T15:11:06;13.80;;;11.37;;
9214;SDS011;4642;51.364;6.788;2023-05-10T15:13:32;12.90;;;10.30;;
9214;SDS011;4642;51.364;6.788;2023-05-10T15:15:57;13.13;;;9.70;;
9214;SDS011;4642;51.364;6.788;2023-05-10T15:18:23;11.83;;;10.23;;
9214;SDS011;4642;51.364;6.788;2023-05-10T15:20:48;10.90;;;9.43;;
9214;SDS011;4642;51.364;6.788;2023-05-10T15:23:14;10.07;;;8.37;;
9214;SDS011;4642;51.364;6.788;2023-05-10T15:25:39;12.60;;;8.83;;
9214;SDS011;4642;51.364;6.788;2023-05-10T15:28:05;11.23;;;9.00;;